Time;durP1;ratioP1;P1;durP2;ratioP2;P2;SDS_P1;SDS_P2;PMS_P1;PMS_P2;Temp;Humidity;BMP_temperature;BMP_pressure;BME280_temperature;BME280_humidity;BME280_pressure;Samples;Min_cycle;Max_cycle;Signal;HPM_P1;HPM_P2
2023/02/28 00:00:43;;;;;;;73.10;9.98;;;5.50;80.00;;;;;;5045640;28;20034;-54
2023/02/28 00:03:09;;;;;;;48.75;10.20;;;5.40;79.90;;;;;;5045237;28;20027;-54
2023/02/28 00:05:34;;;;;;;54.03;10.23;;;5.40;79.90;;;;;;5029327;28;20040;-57
2023/02/28 00:08:00;;;;;;;54.15;9.88;;;5.40;79.90;;;;;;5047057;28;20089;-57
2023/02/28 00:10:27;;;;;;;64.82;10.00;;;5.40;80.00;;;;;;5046660;28;20038;-57
2023/02/28 00:12:54;;;;;;;49.85;9.25;;;5.40;80.00;;;;;;5046801;28;20025;-57
2023/02/28 00:15:19;;;;;;;44.88;8.57;;;5.40;80.00;;;;;;5045421;28;20072;-57
2023/02/28 00:17:45;;;;;;;45.08;8.63;;;5.40;80.00;;;;;;5046056;28;20025;-57
2023/02/28 00:20:11;;;;;;;44.03;8.18;;;5.40;80.10;;;;;;5046392;28;20048;-57
2023/02/28 00:22:45;;;;;;;45.33;9.30;;;5.40;80.10;;;;;;5045044;28;20022;-57
2023/02/28 00:25:11;;;;;;;39.40;7.72;;;5.30;80.00;;;;;;5045280;28;20035;-57
2023/02/28 00:27:37;;;;;;;41.08;8.35;;;5.30;80.00;;;;;;5045076;28;20081;-57
2023/02/28 00:30:04;;;;;;;36.85;8.52;;;5.30;80.10;;;;;;5045083;28;20041;-57
2023/02/28 00:32:29;;;;;;;46.55;8.80;;;5.30;80.10;;;;;;5046361;28;20112;-57
2023/02/28 00:34:55;;;;;;;37.40;8.52;;;5.30;80.20;;;;;;5045137;28;20191;-57
2023/02/28 00:37:21;;;;;;;36.72;7.35;;;5.30;80.10;;;;;;5046379;28;20107;-57
2023/02/28 00:39:46;;;;;;;40.10;7.93;;;5.30;80.20;;;;;;5044756;28;20060;-57
2023/02/28 00:42:12;;;;;;;31.50;7.68;;;5.30;80.20;;;;;;5044696;28;20017;-57
2023/02/28 00:44:37;;;;;;;44.03;7.93;;;5.30;80.20;;;;;;5044794;28;20077;-56
2023/02/28 00:47:03;;;;;;;47.47;7.75;;;5.30;80.20;;;;;;5045993;28;20032;-57
2023/02/28 00:49:28;;;;;;;37.78;6.90;;;5.20;80.10;;;;;;5045844;28;20041;-57
2023/02/28 00:51:54;;;;;;;34.22;7.68;;;5.30;80.20;;;;;;5044609;28;20030;-57
2023/02/28 00:54:20;;;;;;;41.20;8.07;;;5.30;80.20;;;;;;5044640;28;20052;-57
2023/02/28 00:56:46;;;;;;;37.30;7.15;;;5.30;80.20;;;;;;5044644;28;20121;-57
2023/02/28 00:59:15;;;;;;;42.95;8.07;;;5.30;80.30;;;;;;5044197;28;20083;-57
2023/02/28 01:01:40;;;;;;;37.67;7.70;;;5.20;80.20;;;;;;5044502;28;20046;-54
2023/02/28 01:04:06;;;;;;;36.00;7.15;;;5.20;80.30;;;;;;5045857;28;20159;-54
2023/02/28 01:06:31;;;;;;;33.83;7.25;;;5.20;80.30;;;;;;5044828;28;20090;-54
2023/02/28 01:08:58;;;;;;;26.65;7.35;;;5.20;80.30;;;;;;5045605;28;20137;-54
2023/02/28 01:11:23;;;;;;;36.35;6.75;;;5.20;80.30;;;;;;5027897;28;20026;-54
2023/02/28 01:13:49;;;;;;;29.35;7.07;;;5.20;80.30;;;;;;5044184;28;20358;-54
2023/02/28 01:16:15;;;;;;;31.83;7.18;;;5.10;80.20;;;;;;5045551;28;20034;-55
2023/02/28 01:18:40;;;;;;;30.67;7.25;;;5.20;80.40;;;;;;5044123;28;20104;-54
2023/02/28 01:21:12;;;;;;;38.58;6.85;;;5.20;80.40;;;;;;5044136;28;20454;-54
2023/02/28 01:23:38;;;;;;;38.10;6.60;;;5.20;80.40;;;;;;5027846;28;20098;-54
2023/02/28 01:26:12;;;;;;;25.30;6.80;;;5.10;80.40;;;;;;5044294;28;20033;-54
2023/02/28 01:28:37;;;;;;;29.85;7.15;;;5.10;80.40;;;;;;5045415;28;20081;-54
2023/02/28 01:31:03;;;;;;;26.08;6.60;;;5.10;80.40;;;;;;5044265;28;20366;-54
2023/02/28 01:33:28;;;;;;;21.83;6.82;;;5.10;80.30;;;;;;5043737;28;20032;-54
2023/02/28 01:36:01;;;;;;;24.50;6.70;;;5.10;81.10;;;;;;5043834;28;20029;-54
2023/02/28 01:38:26;;;;;;;24.10;5.88;;;5.10;80.50;;;;;;5026945;28;20033;-54
2023/02/28 01:40:52;;;;;;;28.17;5.85;;;5.10;80.40;;;;;;5043745;28;20040;-54
2023/02/28 01:43:25;;;;;;;25.33;6.57;;;5.10;80.60;;;;;;5043709;28;20052;-54
2023/02/28 01:45:52;;;;;;;32.38;7.13;;;5.10;80.50;;;;;;5043714;28;20033;-54
2023/02/28 01:48:18;;;;;;;23.02;5.45;;;5.10;80.50;;;;;;5043663;28;20026;-54
2023/02/28 01:50:44;;;;;;;25.38;6.28;;;5.10;80.40;;;;;;5043332;28;20029;-54
2023/02/28 01:53:13;;;;;;;30.50;6.32;;;5.10;80.40;;;;;;5043569;28;20033;-54
2023/02/28 01:55:39;;;;;;;17.83;5.45;;;5.10;80.50;;;;;;5043534;28;20025;-54
2023/02/28 01:58:05;;;;;;;23.70;5.35;;;5.10;80.40;;;;;;5043322;28;20109;-55
2023/02/28 02:00:31;;;;;;;18.98;4.95;;;5.10;80.60;;;;;;5044176;28;20063;-54
2023/02/28 02:03:04;;;;;;;17.80;5.65;;;5.00;80.40;;;;;;5043484;28;20037;-54
2023/02/28 02:05:31;;;;;;;25.48;6.00;;;5.10;80.50;;;;;;5043635;28;20113;-55
2023/02/28 02:08:04;;;;;;;16.17;5.88;;;5.00;80.50;;;;;;5043452;28;20042;-54
2023/02/28 02:10:40;;;;;;;29.05;6.78;;;5.00;80.50;;;;;;5043453;28;20034;-54
2023/02/28 02:13:08;;;;;;;24.52;6.43;;;5.10;80.60;;;;;;5043262;28;20044;-55
2023/02/28 02:15:38;;;;;;;19.83;6.43;;;5.00;80.50;;;;;;5045128;28;20036;-54
2023/02/28 02:18:23;;;;;;;30.15;7.22;;;5.00;80.60;;;;;;5043009;28;20068;-54
2023/02/28 02:21:24;;;;;;;22.67;7.53;;;5.00;80.60;;;;;;5043306;28;20048;-54
2023/02/28 02:24:14;;;;;;;22.17;7.05;;;5.00;80.60;;;;;;5042670;28;20033;-54
2023/02/28 02:27:18;;;;;;;21.33;7.25;;;5.00;80.60;;;;;;5044733;28;20064;-54
2023/02/28 02:30:11;;;;;;;19.58;6.72;;;5.00;80.70;;;;;;5043463;28;20037;-54
2023/02/28 02:33:04;;;;;;;24.02;7.10;;;5.00;80.80;;;;;;5044487;28;20029;-54
2023/02/28 02:35:46;;;;;;;24.60;7.22;;;5.00;80.90;;;;;;5043174;28;20026;-54
2023/02/28 02:38:32;;;;;;;20.92;6.80;;;5.00;80.90;;;;;;5042954;28;20081;-54
2023/02/28 02:41:18;;;;;;;15.27;5.88;;;4.90;80.90;;;;;;5043249;28;20025;-54
2023/02/28 02:43:45;;;;;;;;;;;4.90;81.00;;;;;;5047158;28;20089;-54
2023/02/28 02:46:20;;;;;;;25.42;6.90;;;4.90;80.90;;;;;;5063626;28;19919;-54
2023/02/28 02:48:46;;;;;;;18.73;6.32;;;4.90;80.90;;;;;;5046772;28;20044;-54
2023/02/28 02:51:14;;;;;;;14.00;5.53;;;4.90;81.00;;;;;;5046774;28;20067;-54
2023/02/28 02:54:19;;;;;;;13.98;6.45;;;4.90;81.00;;;;;;5046760;28;20044;-54
2023/02/28 02:56:46;;;;;;;23.73;7.07;;;4.90;80.90;;;;;;5046554;28;20101;-54
2023/02/28 02:59:12;;;;;;;21.10;5.90;;;4.90;80.90;;;;;;5046464;28;20037;-54
2023/02/28 03:01:38;;;;;;;15.88;6.32;;;4.90;81.00;;;;;;5046670;28;20125;-54
2023/02/28 03:04:13;;;;;;;18.85;6.03;;;4.90;81.00;;;;;;5030064;28;20135;-55
2023/02/28 03:06:38;;;;;;;23.03;5.50;;;4.90;81.60;;;;;;5046775;28;20036;-54
2023/02/28 03:09:04;;;;;;;21.33;6.03;;;4.90;80.90;;;;;;5046615;28;20654;-54
2023/02/28 03:11:29;;;;;;;15.70;6.07;;;4.90;81.00;;;;;;5046537;28;20036;-54
2023/02/28 03:14:24;;;;;;;16.02;5.30;;;4.90;81.00;;;;;;5046556;28;20045;-54
2023/02/28 03:16:54;;;;;;;11.23;5.43;;;4.90;81.00;;;;;;5032312;28;20515;-55
2023/02/28 03:19:41;;;;;;;16.23;6.10;;;4.90;80.90;;;;;;5046131;28;20152;-54
2023/02/28 03:22:28;;;;;;;16.27;6.30;;;4.90;81.00;;;;;;5047715;28;20025;-54
2023/02/28 03:25:12;;;;;;;17.80;6.45;;;4.90;81.00;;;;;;5047470;28;20025;-54
2023/02/28 03:28:08;;;;;;;12.77;6.50;;;4.90;80.90;;;;;;5047809;28;20151;-54
2023/02/28 03:30:40;;;;;;;14.15;5.57;;;4.90;80.90;;;;;;5047452;28;20424;-54
2023/02/28 03:33:22;;;;;;;17.38;6.70;;;4.90;80.90;;;;;;5047354;28;20121;-54
2023/02/28 03:35:59;;;;;;;19.02;6.40;;;4.90;80.80;;;;;;5046257;28;20064;-54
2023/02/28 03:38:34;;;;;;;17.58;6.72;;;4.90;80.80;;;;;;5045917;28;20029;-54
2023/02/28 03:41:13;;;;;;;17.88;7.05;;;4.90;80.80;;;;;;5046040;28;20081;-54
2023/02/28 03:43:40;;;;;;;16.15;6.32;;;4.90;80.80;;;;;;5045939;28;20061;-54
2023/02/28 03:46:08;;;;;;;16.70;6.82;;;4.90;80.70;;;;;;5029288;28;20026;-55
2023/02/28 03:48:43;;;;;;;17.70;6.38;;;4.90;80.70;;;;;;5045470;28;20068;-54
2023/02/28 03:51:09;;;;;;;16.00;6.40;;;4.90;80.90;;;;;;5045950;28;20099;-54
2023/02/28 03:53:39;;;;;;;19.35;7.45;;;4.90;81.20;;;;;;5044855;28;20299;-54
2023/02/28 03:56:17;;;;;;;16.40;7.43;;;4.90;81.60;;;;;;5045738;28;20034;-54
2023/02/28 03:58:49;;;;;;;16.92;7.07;;;4.90;81.80;;;;;;5045694;28;20176;-54
2023/02/28 04:01:19;;;;;;;15.00;7.10;;;4.90;82.00;;;;;;5045606;28;20089;-54
2023/02/28 04:03:45;;;;;;;16.02;7.13;;;4.90;82.10;;;;;;5045396;28;20462;-54
2023/02/28 04:06:18;;;;;;;16.83;6.93;;;4.90;82.00;;;;;;5045589;28;20029;-54
2023/02/28 04:08:44;;;;;;;16.67;6.57;;;4.90;81.80;;;;;;5045522;28;20117;-54
2023/02/28 04:11:20;;;;;;;18.77;6.90;;;4.90;81.60;;;;;;5045508;28;20025;-54
2023/02/28 04:13:45;;;;;;;13.32;6.43;;;4.90;81.70;;;;;;5045535;28;20025;-54
2023/02/28 04:16:13;;;;;;;17.17;6.20;;;4.90;81.60;;;;;;5045430;28;20037;-57
2023/02/28 04:18:39;;;;;;;13.95;6.47;;;4.90;81.50;;;;;;5046721;28;20034;-57
2023/02/28 04:21:05;;;;;;;14.90;6.63;;;4.90;81.50;;;;;;5045337;28;20018;-57
2023/02/28 04:23:31;;;;;;;12.55;6.18;;;4.80;81.50;;;;;;5046631;28;20034;-57
2023/02/28 04:25:57;;;;;;;15.25;6.55;;;4.90;81.50;;;;;;5045324;28;20458;-57
2023/02/28 04:28:22;;;;;;;12.85;6.47;;;4.80;81.40;;;;;;5045197;28;20048;-57
2023/02/28 04:30:53;;;;;;;13.98;6.13;;;4.80;81.40;;;;;;5045046;28;20025;-57
2023/02/28 04:33:19;;;;;;;11.73;5.97;;;4.80;81.30;;;;;;5045000;28;20036;-57
2023/02/28 04:35:44;;;;;;;16.35;6.68;;;4.80;81.30;;;;;;5046375;28;20021;-57
2023/02/28 04:38:10;;;;;;;22.10;8.43;;;4.80;81.20;;;;;;5046254;28;20030;-57
2023/02/28 04:40:35;;;;;;;13.93;7.03;;;4.80;81.20;;;;;;5046165;28;20092;-57
2023/02/28 04:43:01;;;;;;;18.40;7.55;;;4.80;81.10;;;;;;5044878;28;20466;-57
2023/02/28 04:45:29;;;;;;;17.63;7.60;;;4.80;81.10;;;;;;5044584;28;20133;-57
2023/02/28 04:47:55;;;;;;;29.60;9.65;;;4.80;81.10;;;;;;5045909;28;20033;-57
2023/02/28 04:50:20;;;;;;;40.00;11.50;;;4.80;81.10;;;;;;5044324;28;20084;-57
2023/02/28 04:52:46;;;;;;;22.23;9.82;;;4.80;81.00;;;;;;5046075;28;20033;-57
2023/02/28 04:55:12;;;;;;;29.48;9.75;;;4.80;81.00;;;;;;5046084;28;20027;-57
2023/02/28 04:57:37;;;;;;;37.45;9.20;;;4.80;80.90;;;;;;5045786;28;20037;-55
2023/02/28 05:00:06;;;;;;;30.33;8.55;;;4.80;80.90;;;;;;5044500;28;20022;-54
2023/02/28 05:02:35;;;;;;;21.35;8.52;;;4.80;80.90;;;;;;5044511;28;20099;-54
2023/02/28 05:05:00;;;;;;;33.03;8.88;;;4.80;80.80;;;;;;5044267;28;20025;-54
2023/02/28 05:07:26;;;;;;;35.13;8.77;;;4.80;80.60;;;;;;5045684;28;20107;-55
2023/02/28 05:09:52;;;;;;;28.17;9.25;;;4.80;80.70;;;;;;5044243;28;20414;-54
2023/02/28 05:12:18;;;;;;;23.83;8.20;;;4.80;80.70;;;;;;5045669;28;20033;-54
2023/02/28 05:14:44;;;;;;;24.35;8.48;;;4.80;80.70;;;;;;5027582;28;20048;-55
2023/02/28 05:17:10;;;;;;;16.98;7.57;;;4.80;80.70;;;;;;5045455;28;20078;-54
2023/02/28 05:19:35;;;;;;;29.58;8.23;;;4.70;80.70;;;;;;5044059;28;20022;-54
2023/02/28 05:22:01;;;;;;;22.05;8.32;;;4.80;80.70;;;;;;5045885;28;20068;-55
2023/02/28 05:24:26;;;;;;;22.65;8.13;;;4.80;80.70;;;;;;5044230;28;20029;-54
2023/02/28 05:26:52;;;;;;;29.85;8.30;;;4.80;80.60;;;;;;5045429;28;20055;-54
2023/02/28 05:29:18;;;;;;;20.25;7.60;;;4.80;80.60;;;;;;5043998;28;20029;-55
2023/02/28 05:31:44;;;;;;;25.45;7.90;;;4.70;80.50;;;;;;5043950;28;20037;-54
2023/02/28 05:34:12;;;;;;;18.85;7.97;;;4.70;80.50;;;;;;5043905;28;20085;-54
2023/02/28 05:36:37;;;;;;;20.80;6.93;;;4.70;81.20;;;;;;5045397;28;20063;-54
2023/02/28 05:39:04;;;;;;;26.23;6.65;;;4.70;80.40;;;;;;5043714;28;20086;-55
2023/02/28 05:41:30;;;;;;;17.45;7.40;;;4.70;80.50;;;;;;5043685;28;20022;-54
2023/02/28 05:43:55;;;;;;;20.23;7.00;;;4.70;80.90;;;;;;5045814;28;20036;-54
2023/02/28 05:46:21;;;;;;;18.38;7.50;;;4.70;81.00;;;;;;5043598;28;20116;-55
2023/02/28 05:48:47;;;;;;;17.92;6.57;;;4.70;81.40;;;;;;5043950;28;20038;-54
2023/02/28 05:51:13;;;;;;;18.63;7.10;;;4.70;81.20;;;;;;5045012;28;20033;-55
2023/02/28 05:53:38;;;;;;;12.60;6.75;;;4.70;81.30;;;;;;5044819;28;20037;-54
2023/02/28 05:56:04;;;;;;;14.63;6.45;;;4.70;81.40;;;;;;5044170;28;20059;-54
2023/02/28 05:58:30;;;;;;;17.88;7.20;;;4.70;81.60;;;;;;5043477;28;20034;-55
2023/02/28 06:00:57;;;;;;;15.15;6.30;;;4.70;81.50;;;;;;5043387;28;20025;-54
2023/02/28 06:03:23;;;;;;;18.30;6.22;;;4.70;81.50;;;;;;5044873;28;20029;-55
2023/02/28 06:05:48;;;;;;;16.83;6.10;;;4.80;81.50;;;;;;5043453;28;20033;-54
2023/02/28 06:08:14;;;;;;;17.30;6.15;;;4.80;82.10;;;;;;5044897;28;20053;-54
2023/02/28 06:10:39;;;;;;;14.38;5.95;;;4.80;81.50;;;;;;5043527;28;20022;-54
2023/02/28 06:13:05;;;;;;;10.55;5.40;;;4.80;81.60;;;;;;5043272;28;20037;-54
2023/02/28 06:15:31;;;;;;;15.63;6.25;;;4.70;81.40;;;;;;5044534;28;20100;-54
2023/02/28 06:17:56;;;;;;;10.88;5.20;;;4.80;81.50;;;;;;5042977;28;20052;-54
2023/02/28 06:20:22;;;;;;;14.43;6.00;;;4.70;81.50;;;;;;5044600;28;20045;-54
2023/02/28 06:22:50;;;;;;;15.20;6.40;;;4.70;81.70;;;;;;5044522;28;20112;-54
2023/02/28 06:25:15;;;;;;;8.95;5.68;;;4.70;81.80;;;;;;5043186;28;20030;-54
2023/02/28 06:27:41;;;;;;;9.38;6.10;;;4.70;81.90;;;;;;5043132;28;20041;-54
2023/02/28 06:30:08;;;;;;;12.75;5.90;;;4.70;81.80;;;;;;5043140;28;20064;-54
2023/02/28 06:32:34;;;;;;;12.43;5.65;;;4.70;81.80;;;;;;5026505;28;20485;-54
2023/02/28 06:34:59;;;;;;;13.75;5.82;;;4.80;81.90;;;;;;5043282;28;20033;-54
2023/02/28 06:37:26;;;;;;;17.20;5.70;;;4.70;81.90;;;;;;5044322;28;20038;-54
2023/02/28 06:39:51;;;;;;;7.22;5.22;;;4.70;82.00;;;;;;5042757;28;20029;-54
2023/02/28 06:42:17;;;;;;;10.43;5.40;;;4.70;82.00;;;;;;5042943;28;20033;-54
2023/02/28 06:44:43;;;;;;;15.63;5.78;;;4.80;82.00;;;;;;5026506;28;20080;-57
2023/02/28 06:47:08;;;;;;;14.70;5.55;;;4.70;81.90;;;;;;5042930;28;20014;-57
2023/02/28 06:49:34;;;;;;;11.77;5.45;;;4.70;82.60;;;;;;5044176;28;20351;-54
2023/02/28 06:52:00;;;;;;;10.95;5.30;;;4.80;82.00;;;;;;5044255;28;20496;-54
2023/02/28 06:54:25;;;;;;;12.93;5.82;;;4.70;82.00;;;;;;5026365;28;20536;-57
2023/02/28 06:56:51;;;;;;;11.27;5.72;;;4.80;82.00;;;;;;5043242;28;20056;-57
2023/02/28 06:59:17;;;;;;;13.38;5.32;;;4.70;81.90;;;;;;5042861;28;20033;-57
2023/02/28 07:01:42;;;;;;;8.32;5.15;;;4.70;81.80;;;;;;5043308;28;20075;-57
2023/02/28 07:04:08;;;;;;;9.20;4.82;;;4.70;81.80;;;;;;5044187;28;20030;-57
2023/02/28 07:06:33;;;;;;;15.18;6.32;;;4.70;81.80;;;;;;5042904;28;20069;-57
2023/02/28 07:08:59;;;;;;;9.40;5.15;;;4.80;81.80;;;;;;5042672;28;20065;-57
2023/02/28 07:11:25;;;;;;;9.50;5.25;;;4.70;81.80;;;;;;5042735;28;20021;-57
2023/02/28 07:13:54;;;;;;;9.80;4.53;;;4.70;81.80;;;;;;5042608;28;20034;-54
2023/02/28 07:16:21;;;;;;;10.73;5.10;;;4.70;81.80;;;;;;5042741;28;20034;-54
2023/02/28 07:18:47;;;;;;;12.05;5.13;;;4.70;81.70;;;;;;5053264;28;20064;-54
2023/02/28 07:21:13;;;;;;;11.98;5.07;;;4.70;81.60;;;;;;5064056;28;20484;-54
2023/02/28 07:23:38;;;;;;;10.10;5.10;;;4.70;81.60;;;;;;5063851;28;20111;-55
2023/02/28 07:26:05;;;;;;;8.65;5.10;;;4.70;81.50;;;;;;5060164;28;20421;-54
2023/02/28 07:28:31;;;;;;;8.30;5.20;;;4.70;81.50;;;;;;5063258;28;20040;-55
2023/02/28 07:30:56;;;;;;;9.95;5.07;;;4.70;81.40;;;;;;5049444;28;20353;-54
2023/02/28 07:33:23;;;;;;;8.00;4.70;;;4.70;81.40;;;;;;5049062;28;20113;-54
2023/02/28 07:35:49;;;;;;;9.05;5.25;;;4.70;81.40;;;;;;5043430;28;20018;-54
2023/02/28 07:38:15;;;;;;;8.55;5.30;;;4.70;81.30;;;;;;5047253;28;20056;-54
2023/02/28 07:40:40;;;;;;;8.63;4.82;;;4.70;81.20;;;;;;5047026;28;20081;-54
2023/02/28 07:43:06;;;;;;;12.05;4.90;;;4.70;81.20;;;;;;5047160;28;20033;-54
2023/02/28 07:45:34;;;;;;;11.50;4.90;;;4.70;81.20;;;;;;5061983;28;20029;-54
2023/02/28 07:47:59;;;;;;;11.60;5.28;;;4.70;81.10;;;;;;5045650;28;20040;-54
2023/02/28 07:50:25;;;;;;;7.75;5.30;;;4.70;81.10;;;;;;5055130;28;20029;-54
2023/02/28 07:52:51;;;;;;;9.40;5.18;;;4.70;81.10;;;;;;5046692;28;20124;-54
2023/02/28 07:55:16;;;;;;;12.75;5.70;;;4.70;81.10;;;;;;5054798;28;20096;-54
2023/02/28 07:57:43;;;;;;;8.68;5.00;;;4.70;81.00;;;;;;5061250;28;20040;-54
2023/02/28 08:00:10;;;;;;;8.07;5.05;;;4.70;81.00;;;;;;5029262;28;20025;-54
2023/02/28 08:02:36;;;;;;;10.88;5.45;;;4.80;81.20;;;;;;5032004;28;20036;-55
2023/02/28 08:05:01;;;;;;;11.55;5.55;;;4.80;81.00;;;;;;5028192;28;20022;-54
2023/02/28 08:07:27;;;;;;;18.73;5.45;;;4.80;81.00;;;;;;5058188;28;20034;-54
2023/02/28 08:09:53;;;;;;;14.18;5.38;;;4.80;81.00;;;;;;5044379;28;20026;-55
2023/02/28 08:12:18;;;;;;;10.98;5.82;;;4.80;80.90;;;;;;5034961;28;20034;-54
2023/02/28 08:14:44;;;;;;;16.55;5.63;;;4.80;80.90;;;;;;5036193;28;20030;-54
2023/02/28 08:17:09;;;;;;;22.50;5.78;;;4.90;80.90;;;;;;5039604;28;20014;-54
2023/02/28 08:19:35;;;;;;;17.85;5.95;;;4.80;80.80;;;;;;5032205;28;20076;-54
2023/02/28 08:22:00;;;;;;;17.52;6.13;;;4.90;80.70;;;;;;5061263;28;20018;-54
2023/02/28 08:24:26;;;;;;;17.95;5.90;;;4.80;80.60;;;;;;5036842;28;20032;-54
2023/02/28 08:26:52;;;;;;;18.00;5.63;;;4.90;80.60;;;;;;5026209;28;20522;-54
2023/02/28 08:29:17;;;;;;;19.15;6.40;;;4.90;80.60;;;;;;5026123;28;20053;-55
2023/02/28 08:31:43;;;;;;;28.88;6.38;;;4.90;80.50;;;;;;5039671;28;20026;-54
2023/02/28 08:34:10;;;;;;;25.13;6.47;;;4.90;80.50;;;;;;5024035;28;20118;-54
2023/02/28 08:36:36;;;;;;;23.88;6.55;;;4.90;80.50;;;;;;5026167;28;20044;-54
2023/02/28 08:39:01;;;;;;;19.30;6.60;;;4.90;80.50;;;;;;5024073;28;20093;-54
2023/02/28 08:41:27;;;;;;;26.27;6.65;;;5.00;80.40;;;;;;5026196;28;20068;-54
2023/02/28 08:43:53;;;;;;;26.23;6.90;;;5.00;80.40;;;;;;5041518;28;20069;-54
2023/02/28 08:46:19;;;;;;;44.85;7.82;;;5.00;80.40;;;;;;5041110;28;20021;-54
2023/02/28 08:48:45;;;;;;;32.13;8.38;;;5.00;80.40;;;;;;5024558;28;20030;-54
2023/02/28 08:51:13;;;;;;;34.42;7.85;;;5.00;80.40;;;;;;5040549;28;20018;-57
2023/02/28 08:53:39;;;;;;;45.50;7.82;;;5.00;80.40;;;;;;5040222;28;20038;-57
2023/02/28 08:56:06;;;;;;;46.85;9.45;;;5.00;80.40;;;;;;5024207;28;20116;-57
2023/02/28 08:58:33;;;;;;;21.23;7.60;;;5.00;80.40;;;;;;5021763;28;20030;-57
2023/02/28 09:00:59;;;;;;;50.38;9.27;;;5.10;80.40;;;;;;5023839;28;20028;-57
2023/02/28 09:03:24;;;;;;;47.70;8.32;;;5.10;80.40;;;;;;5024216;28;20030;-57
2023/02/28 09:05:56;;;;;;;36.38;8.82;;;5.10;80.40;;;;;;5022245;28;20044;-57
2023/02/28 09:08:22;;;;;;;59.10;8.90;;;5.10;80.30;;;;;;5024012;28;20033;-57
2023/02/28 09:10:48;;;;;;;35.95;8.15;;;5.10;80.20;;;;;;5007723;28;20030;-57
2023/02/28 09:13:14;;;;;;;39.92;7.97;;;5.10;80.10;;;;;;5024332;28;20084;-57
2023/02/28 09:15:39;;;;;;;48.35;9.23;;;5.20;80.10;;;;;;5025777;28;20029;-57
2023/02/28 09:18:05;;;;;;;37.55;7.20;;;5.10;80.00;;;;;;4991528;28;20046;-57
2023/02/28 09:20:30;;;;;;;38.30;8.20;;;5.20;79.90;;;;;;5007929;28;20395;-57
2023/02/28 09:22:56;;;;;;;46.10;8.45;;;5.20;79.90;;;;;;5025493;28;20026;-57
2023/02/28 09:25:21;;;;;;;38.40;7.78;;;5.20;79.80;;;;;;5024148;28;20061;-57
2023/02/28 09:27:47;;;;;;;45.58;8.10;;;5.20;79.80;;;;;;5025559;28;20099;-57
2023/02/28 09:30:13;;;;;;;35.40;8.23;;;5.30;79.90;;;;;;5025256;28;20061;-57
2023/02/28 09:32:38;;;;;;;30.52;7.28;;;5.30;79.80;;;;;;5024203;28;20049;-57
2023/02/28 09:35:04;;;;;;;68.18;9.75;;;5.30;79.70;;;;;;5024110;28;20036;-55
2023/02/28 09:37:31;;;;;;;37.70;8.27;;;5.30;79.60;;;;;;5023564;28;20038;-54
2023/02/28 09:39:56;;;;;;;31.20;7.25;;;5.30;79.60;;;;;;5023687;28;20052;-55
2023/02/28 09:42:27;;;;;;;64.45;10.05;;;5.40;79.70;;;;;;5023888;28;20037;-54
2023/02/28 09:44:53;;;;;;;46.75;10.55;;;5.40;79.70;;;;;;5028694;28;20024;-55
2023/02/28 09:47:36;;;;;;;37.03;7.68;;;5.40;79.60;;;;;;5047904;28;20036;-55
2023/02/28 09:50:28;;;;;;;32.53;7.85;;;5.40;79.50;;;;;;5059852;28;20032;-54
2023/02/28 09:52:54;;;;;;;32.72;7.32;;;5.40;79.50;;;;;;5045919;28;20092;-54
2023/02/28 09:55:30;;;;;;;114.60;15.95;;;5.50;79.60;;;;;;5057860;28;20021;-54
2023/02/28 09:57:56;;;;;;;69.32;11.55;;;5.50;79.40;;;;;;5037654;28;20037;-57
2023/02/28 10:00:30;;;;;;;52.15;9.68;;;5.50;79.40;;;;;;5048986;28;20036;-57
2023/02/28 10:03:12;;;;;;;34.42;7.80;;;5.50;79.30;;;;;;5042563;28;20033;-57
2023/02/28 10:05:50;;;;;;;39.75;8.68;;;5.60;79.20;;;;;;5050428;28;20037;-57
2023/02/28 10:08:18;;;;;;;35.90;8.02;;;5.60;79.10;;;;;;5049760;28;20041;-57
2023/02/28 10:10:45;;;;;;;34.13;8.55;;;5.60;79.10;;;;;;5042654;28;20025;-57
2023/02/28 10:13:17;;;;;;;44.80;8.98;;;5.60;79.10;;;;;;5026564;28;20052;-55
2023/02/28 10:15:42;;;;;;;38.38;8.43;;;5.60;79.20;;;;;;5044197;28;20457;-57
2023/02/28 10:18:12;;;;;;;41.05;9.27;;;5.70;79.20;;;;;;5019843;28;20101;-57
2023/02/28 10:20:39;;;;;;;54.42;9.43;;;5.70;79.20;;;;;;5023822;28;20477;-57
2023/02/28 10:23:47;;;;;;;38.42;8.80;;;5.70;79.20;;;;;;5024168;28;20030;-57
2023/02/28 10:26:15;;;;;;;32.10;7.60;;;5.70;79.00;;;;;;5023264;28;20033;-57
2023/02/28 10:28:41;;;;;;;43.63;8.18;;;5.80;78.90;;;;;;5023487;28;20041;-57
2023/02/28 10:31:16;;;;;;;25.42;7.40;;;5.80;78.80;;;;;;5042314;28;20034;-57
2023/02/28 10:33:42;;;;;;;39.55;7.75;;;5.80;78.60;;;;;;5029077;28;20033;-56
2023/02/28 10:36:10;;;;;;;24.38;7.53;;;5.90;78.70;;;;;;5050608;28;20018;-57
2023/02/28 10:38:37;;;;;;;36.92;7.38;;;5.90;78.70;;;;;;5057937;28;20041;-57
2023/02/28 10:41:07;;;;;;;42.00;7.93;;;5.90;78.60;;;;;;5051610;28;20036;-57
2023/02/28 10:43:33;;;;;;;31.52;8.23;;;5.90;78.50;;;;;;5034673;28;20025;-57
2023/02/28 10:46:09;;;;;;;38.45;7.57;;;5.90;78.40;;;;;;5048281;28;20029;-55
2023/02/28 10:48:45;;;;;;;21.85;7.28;;;5.90;78.30;;;;;;5054046;28;20030;-55
2023/02/28 10:51:12;;;;;;;34.38;7.82;;;6.00;78.30;;;;;;5055292;28;20035;-55
2023/02/28 10:53:51;;;;;;;36.35;8.05;;;6.00;78.30;;;;;;5035909;28;20465;-56
2023/02/28 10:56:18;;;;;;;42.25;9.48;;;6.00;78.20;;;;;;5045828;28;20025;-55
2023/02/28 10:59:01;;;;;;;40.47;8.88;;;6.10;78.30;;;;;;5059387;28;20052;-57
2023/02/28 11:01:38;;;;;;;67.53;10.63;;;6.10;78.50;;;;;;5034322;28;20021;-57
2023/02/28 11:04:23;;;;;;;37.05;9.32;;;6.10;78.40;;;;;;5049412;28;20041;-54
2023/02/28 11:07:18;;;;;;;69.07;10.85;;;6.20;78.40;;;;;;5026163;28;20018;-57
2023/02/28 11:09:57;;;;;;;43.63;8.35;;;6.20;78.50;;;;;;5027057;28;20057;-57
2023/02/28 11:12:37;;;;;;;49.97;8.48;;;6.20;78.30;;;;;;5059175;28;20033;-57
2023/02/28 11:15:17;;;;;;;55.20;10.02;;;6.20;78.30;;;;;;5065877;28;20083;-57
2023/02/28 11:17:42;;;;;;;47.90;9.30;;;6.30;78.30;;;;;;5065501;28;20036;-57
2023/02/28 11:20:18;;;;;;;56.20;9.10;;;6.30;78.20;;;;;;5058435;28;20029;-57
2023/02/28 11:22:44;;;;;;;51.92;10.73;;;6.40;78.10;;;;;;5045472;28;20041;-57
2023/02/28 11:25:23;;;;;;;58.15;10.23;;;6.40;78.10;;;;;;5045208;28;20513;-57
2023/02/28 11:27:50;;;;;;;51.20;10.23;;;6.40;78.00;;;;;;5050587;28;20384;-57
2023/02/28 11:30:26;;;;;;;62.20;10.15;;;6.40;78.00;;;;;;5057367;28;20033;-59
2023/02/28 11:32:52;;;;;;;571.35;87.03;;;6.40;78.00;;;;;;5050928;28;20029;-59
2023/02/28 11:35:26;;;;;;;157.82;22.42;;;6.50;78.20;;;;;;5060878;28;20052;-59
2023/02/28 11:37:52;;;;;;;81.55;13.95;;;6.40;78.10;;;;;;5049720;28;20029;-59
2023/02/28 11:40:20;;;;;;;56.75;11.43;;;6.50;78.30;;;;;;5055778;28;20025;-59
2023/02/28 11:43:09;;;;;;;75.75;10.40;;;6.50;78.40;;;;;;5024477;28;20032;-59
2023/02/28 11:45:45;;;;;;;62.22;10.10;;;6.50;78.20;;;;;;5047939;28;20028;-59
2023/02/28 11:48:25;;;;;;;82.78;13.23;;;6.50;78.20;;;;;;5054841;28;20100;-59
2023/02/28 11:51:24;;;;;;;68.63;10.95;;;6.50;78.20;;;;;;5033492;28;20029;-56
2023/02/28 11:54:08;;;;;;;69.35;11.63;;;6.60;78.10;;;;;;5045941;28;20102;-56
2023/02/28 11:56:37;;;;;;;62.88;11.27;;;6.60;78.00;;;;;;5047958;28;20075;-59
2023/02/28 11:59:28;;;;;;;64.68;11.52;;;6.60;78.10;;;;;;5044313;28;20152;-55
2023/02/28 12:02:18;;;;;;;65.35;10.32;;;6.70;78.10;;;;;;5056659;28;20051;-59
2023/02/28 12:04:56;;;;;;;73.97;11.80;;;6.70;78.20;;;;;;5044958;28;20033;-59
2023/02/28 12:08:06;;;;;;;60.05;9.95;;;6.70;78.30;;;;;;5051318;28;20441;-59
2023/02/28 12:11:09;;;;;;;68.88;10.57;;;6.70;78.20;;;;;;5032140;28;20029;-59
2023/02/28 12:13:53;;;;;;;84.47;12.57;;;6.70;78.00;;;;;;5015838;28;20048;-59
2023/02/28 12:16:21;;;;;;;83.25;11.35;;;6.80;77.90;;;;;;5040494;28;20014;-59
2023/02/28 12:19:21;;;;;;;76.60;12.30;;;6.90;78.00;;;;;;5043303;28;20112;-59
2023/02/28 12:22:03;;;;;;;83.70;13.05;;;6.80;77.90;;;;;;5043219;28;20033;-59
2023/02/28 12:24:38;;;;;;;80.07;13.27;;;6.80;77.80;;;;;;5043419;28;20068;-59
2023/02/28 12:27:07;;;;;;;69.65;11.32;;;6.80;77.70;;;;;;5055368;28;20021;-57
2023/02/28 12:29:38;;;;;;;70.72;11.95;;;6.80;77.70;;;;;;5027835;28;20029;-56
2023/02/28 12:32:21;;;;;;;73.05;11.05;;;6.90;77.70;;;;;;5027065;28;20041;-56
2023/02/28 12:35:09;;;;;;;66.18;11.55;;;6.90;77.70;;;;;;5043895;28;20029;-56
2023/02/28 12:37:55;;;;;;;370.95;38.17;;;6.90;77.70;;;;;;5045436;28;20037;-56
2023/02/28 12:40:27;;;;;;;295.30;29.40;;;6.90;77.70;;;;;;5043830;28;20026;-56
2023/02/28 12:42:56;;;;;;;164.95;21.17;;;6.90;77.80;;;;;;5027138;28;20043;-56
2023/02/28 12:45:27;;;;;;;158.05;20.45;;;6.90;77.80;;;;;;5027626;28;20025;-56
2023/02/28 12:47:57;;;;;;;225.85;25.52;;;6.90;77.70;;;;;;5044000;28;20034;-56
2023/02/28 12:50:22;;;;;;;116.03;16.73;;;7.00;77.50;;;;;;5035682;28;20064;-56
2023/02/28 12:52:56;;;;;;;63.80;11.05;;;7.00;77.40;;;;;;5016398;28;20029;-56
2023/02/28 12:55:25;;;;;;;67.35;11.15;;;7.00;77.30;;;;;;5041320;28;20022;-56
2023/02/28 12:58:20;;;;;;;164.60;21.80;;;7.00;77.10;;;;;;5040455;28;20033;-56
2023/02/28 13:00:58;;;;;;;45.17;7.90;;;7.00;77.10;;;;;;5038350;28;20094;-59